Letter Gap, West Virginia
Current Conditions -  °F | °C
As of 4:35 PM on Friday 19 Dec 2014 (Local Time) from KW22 Reporting Station
Overcast Overcast  
Wind Chill: 21°   Ceiling: 1700
Heat Index: 27°   Visibility: NA
Dew Point: 21°   Wind: 5mph
Humidity: 80%   Direction: 260°W
Pressure: 30.2"   Gusts: NA
Location:  38.8918°N, 80.9566°W
Report Text: KW22 192135Z AUTO 26004KT OVC017 M03/M06 A3020 RMK AO2
Loading
Personal Weather Stations






























Interactive Weather Map New forecast layout! Learn more

10-Day Weather Forecast

Advertisements
Track Severe Weather on mobile